Terminal Aerodrome Forecast
Issued by NWS Newport/Morehead City, NC

Home | Current Version | Previous Version | Graphics & Text | Print | Product List | Glossary On
Versions: 1 2 3 4 5 6 7 8 9 10 11 12 13 14 15 16 17 18 19 20 21 22 23
358
FTUS42 KMHX 290904 AAA
TAFEWN
TAF AMD
KEWN 290904Z 2909/3006 34004KT P6SM SCT005 BKN040
     FM290930 34004KT 5SM BR BKN005
     FM291400 36006KT P6SM SCT007 BKN015
     FM291600 36006KT P6SM SCT040
     FM300000 08005KT P6SM SCT040=

USA.gov is the U.S. government's official web portal to all federal, state and local government web resources and services.